<?xml version="1.0" encoding="UTF-8" standalone="no" ?>
<gpx xmlns="http://www.topografix.com/GPX/1/1" xmlns:xsi="http://www.w3.org/2001/XMLSchema-instance" xsi:schemaLocation="http://www.topografix.com/GPX/1/1 http://www.topografix.com/GPX/1/1/gpx.xsd" version="1.1" creator="VisuGPX - https://www.visugpx.com">
  <metadata>
    <name>9IcMYB7uc5</name>
    <desc><![CDATA[

]]></desc>
  </metadata>
  <trk>
    <name><![CDATA[9IcMYB7uc5_1]]></name>
    <extensions>
      <line xmlns="http://www.topografix.com/GPX/gpx_style/0/2">
        <color>1100ff</color>
        <width>4</width>
      </line>
    </extensions>
    <trkseg>
      <trkpt lat="43.23849" lon="5.87945">
        <ele>578.85</ele>
        <time>2022-09-17T06:47:28Z</time>
      </trkpt>
      <trkpt lat="43.23853" lon="5.87948">
        <ele>579.33</ele>
        <time>2022-09-17T06:47:29Z</time>
      </trkpt>
      <trkpt lat="43.23855" lon="5.87953">
        <ele>579.81</ele>
        <time>2022-09-17T06:47:30Z</time>
      </trkpt>
      <trkpt lat="43.23856" lon="5.87958">
        <ele>579.33</ele>
        <time>2022-09-17T06:47:31Z</time>
      </trkpt>
      <trkpt lat="43.23856" lon="5.87964">
        <ele>579.81</ele>
        <time>2022-09-17T06:47:32Z</time>
      </trkpt>
      <trkpt lat="43.23856" lon="5.87969">
        <ele>579.81</ele>
        <time>2022-09-17T06:47:33Z</time>
      </trkpt>
      <trkpt lat="43.23864" lon="5.88049">
        <ele>581.25</ele>
        <time>2022-09-17T06:47:48Z</time>
      </trkpt>
      <trkpt lat="43.23861" lon="5.88115">
        <ele>580.29</ele>
        <time>2022-09-17T06:48:01Z</time>
      </trkpt>
      <trkpt lat="43.23844" lon="5.88187">
        <ele>583.66</ele>
        <time>2022-09-17T06:48:19Z</time>
      </trkpt>
      <trkpt lat="43.23841" lon="5.88245">
        <ele>586.54</ele>
        <time>2022-09-17T06:48:37Z</time>
      </trkpt>
      <trkpt lat="43.23856" lon="5.88291">
        <ele>585.58</ele>
        <time>2022-09-17T06:48:53Z</time>
      </trkpt>
      <trkpt lat="43.23884" lon="5.88338">
        <ele>590.39</ele>
        <time>2022-09-17T06:49:10Z</time>
      </trkpt>
      <trkpt lat="43.23899" lon="5.88391">
        <ele>594.23</ele>
        <time>2022-09-17T06:49:26Z</time>
      </trkpt>
      <trkpt lat="43.23908" lon="5.88461">
        <ele>595.67</ele>
        <time>2022-09-17T06:49:41Z</time>
      </trkpt>
      <trkpt lat="43.23902" lon="5.88522">
        <ele>597.12</ele>
        <time>2022-09-17T06:49:53Z</time>
      </trkpt>
      <trkpt lat="43.23887" lon="5.88638">
        <ele>599.04</ele>
        <time>2022-09-17T06:50:16Z</time>
      </trkpt>
      <trkpt lat="43.23864" lon="5.88719">
        <ele>600</ele>
        <time>2022-09-17T06:50:33Z</time>
      </trkpt>
      <trkpt lat="43.23817" lon="5.88797">
        <ele>600.96</ele>
        <time>2022-09-17T06:50:52Z</time>
      </trkpt>
      <trkpt lat="43.23762" lon="5.88865">
        <ele>601.92</ele>
        <time>2022-09-17T06:51:09Z</time>
      </trkpt>
      <trkpt lat="43.23732" lon="5.88908">
        <ele>601.92</ele>
        <time>2022-09-17T06:51:18Z</time>
      </trkpt>
      <trkpt lat="43.2373" lon="5.88914">
        <ele>601.92</ele>
        <time>2022-09-17T06:51:19Z</time>
      </trkpt>
      <trkpt lat="43.23714" lon="5.88993">
        <ele>602.88</ele>
        <time>2022-09-17T06:51:31Z</time>
      </trkpt>
      <trkpt lat="43.23714" lon="5.88999">
        <ele>602.88</ele>
        <time>2022-09-17T06:51:32Z</time>
      </trkpt>
      <trkpt lat="43.23714" lon="5.89006">
        <ele>602.88</ele>
        <time>2022-09-17T06:51:33Z</time>
      </trkpt>
      <trkpt lat="43.23715" lon="5.89012">
        <ele>603.36</ele>
        <time>2022-09-17T06:51:34Z</time>
      </trkpt>
      <trkpt lat="43.23716" lon="5.89018">
        <ele>603.36</ele>
        <time>2022-09-17T06:51:35Z</time>
      </trkpt>
      <trkpt lat="43.23718" lon="5.89023">
        <ele>603.36</ele>
        <time>2022-09-17T06:51:36Z</time>
      </trkpt>
      <trkpt lat="43.23719" lon="5.89029">
        <ele>603.36</ele>
        <time>2022-09-17T06:51:37Z</time>
      </trkpt>
      <trkpt lat="43.2373" lon="5.89109">
        <ele>605.77</ele>
        <time>2022-09-17T06:51:53Z</time>
      </trkpt>
      <trkpt lat="43.23731" lon="5.8919">
        <ele>608.17</ele>
        <time>2022-09-17T06:52:10Z</time>
      </trkpt>
      <trkpt lat="43.23734" lon="5.89282">
        <ele>609.61</ele>
        <time>2022-09-17T06:52:28Z</time>
      </trkpt>
      <trkpt lat="43.23715" lon="5.8938">
        <ele>608.17</ele>
        <time>2022-09-17T06:52:44Z</time>
      </trkpt>
      <trkpt lat="43.237" lon="5.8943">
        <ele>606.73</ele>
        <time>2022-09-17T06:52:51Z</time>
      </trkpt>
      <trkpt lat="43.23696" lon="5.89436">
        <ele>606.25</ele>
        <time>2022-09-17T06:52:52Z</time>
      </trkpt>
      <trkpt lat="43.23692" lon="5.89442">
        <ele>605.77</ele>
        <time>2022-09-17T06:52:53Z</time>
      </trkpt>
      <trkpt lat="43.23687" lon="5.89447">
        <ele>605.77</ele>
        <time>2022-09-17T06:52:54Z</time>
      </trkpt>
      <trkpt lat="43.23681" lon="5.89452">
        <ele>605.29</ele>
        <time>2022-09-17T06:52:55Z</time>
      </trkpt>
      <trkpt lat="43.23675" lon="5.89455">
        <ele>605.29</ele>
        <time>2022-09-17T06:52:56Z</time>
      </trkpt>
      <trkpt lat="43.23637" lon="5.89472">
        <ele>603.36</ele>
        <time>2022-09-17T06:53:02Z</time>
      </trkpt>
      <trkpt lat="43.2359" lon="5.89472">
        <ele>603.85</ele>
        <time>2022-09-17T06:53:11Z</time>
      </trkpt>
      <trkpt lat="43.23586" lon="5.89473">
        <ele>604.33</ele>
        <time>2022-09-17T06:53:12Z</time>
      </trkpt>
      <trkpt lat="43.23582" lon="5.89475">
        <ele>604.33</ele>
        <time>2022-09-17T06:53:13Z</time>
      </trkpt>
      <trkpt lat="43.23578" lon="5.89477">
        <ele>604.81</ele>
        <time>2022-09-17T06:53:14Z</time>
      </trkpt>
      <trkpt lat="43.23575" lon="5.8948">
        <ele>604.81</ele>
        <time>2022-09-17T06:53:15Z</time>
      </trkpt>
      <trkpt lat="43.23572" lon="5.89483">
        <ele>605.77</ele>
        <time>2022-09-17T06:53:16Z</time>
      </trkpt>
      <trkpt lat="43.2357" lon="5.89486">
        <ele>605.77</ele>
        <time>2022-09-17T06:53:17Z</time>
      </trkpt>
      <trkpt lat="43.23544" lon="5.89535">
        <ele>612.02</ele>
        <time>2022-09-17T06:53:34Z</time>
      </trkpt>
      <trkpt lat="43.23536" lon="5.89552">
        <ele>613.94</ele>
        <time>2022-09-17T06:53:41Z</time>
      </trkpt>
      <trkpt lat="43.23534" lon="5.89553">
        <ele>614.42</ele>
        <time>2022-09-17T06:53:42Z</time>
      </trkpt>
      <trkpt lat="43.23532" lon="5.89553">
        <ele>614.42</ele>
        <time>2022-09-17T06:53:43Z</time>
      </trkpt>
      <trkpt lat="43.2353" lon="5.89553">
        <ele>614.42</ele>
        <time>2022-09-17T06:53:44Z</time>
      </trkpt>
      <trkpt lat="43.23528" lon="5.89552">
        <ele>614.42</ele>
        <time>2022-09-17T06:53:45Z</time>
      </trkpt>
      <trkpt lat="43.23526" lon="5.89551">
        <ele>614.42</ele>
        <time>2022-09-17T06:53:46Z</time>
      </trkpt>
      <trkpt lat="43.23524" lon="5.8955">
        <ele>614.42</ele>
        <time>2022-09-17T06:53:47Z</time>
      </trkpt>
      <trkpt lat="43.23498" lon="5.89542">
        <ele>617.78</ele>
        <time>2022-09-17T06:54:01Z</time>
      </trkpt>
      <trkpt lat="43.23483" lon="5.89565">
        <ele>622.11</ele>
        <time>2022-09-17T06:54:14Z</time>
      </trkpt>
      <trkpt lat="43.23477" lon="5.89602">
        <ele>624.99</ele>
        <time>2022-09-17T06:54:31Z</time>
      </trkpt>
      <trkpt lat="43.23467" lon="5.8963">
        <ele>627.88</ele>
        <time>2022-09-17T06:54:46Z</time>
      </trkpt>
      <trkpt lat="43.23466" lon="5.89632">
        <ele>628.36</ele>
        <time>2022-09-17T06:54:47Z</time>
      </trkpt>
      <trkpt lat="43.23465" lon="5.89633">
        <ele>628.84</ele>
        <time>2022-09-17T06:54:48Z</time>
      </trkpt>
      <trkpt lat="43.23464" lon="5.89635">
        <ele>628.84</ele>
        <time>2022-09-17T06:54:49Z</time>
      </trkpt>
      <trkpt lat="43.23463" lon="5.89637">
        <ele>629.32</ele>
        <time>2022-09-17T06:54:50Z</time>
      </trkpt>
      <trkpt lat="43.23462" lon="5.89638">
        <ele>629.8</ele>
        <time>2022-09-17T06:54:51Z</time>
      </trkpt>
      <trkpt lat="43.23446" lon="5.89679">
        <ele>634.61</ele>
        <time>2022-09-17T06:55:11Z</time>
      </trkpt>
      <trkpt lat="43.23448" lon="5.89731">
        <ele>637.97</ele>
        <time>2022-09-17T06:55:31Z</time>
      </trkpt>
      <trkpt lat="43.23446" lon="5.89807">
        <ele>640.38</ele>
        <time>2022-09-17T06:55:54Z</time>
      </trkpt>
      <trkpt lat="43.23435" lon="5.89891">
        <ele>641.82</ele>
        <time>2022-09-17T06:56:18Z</time>
      </trkpt>
      <trkpt lat="43.23448" lon="5.89942">
        <ele>645.18</ele>
        <time>2022-09-17T06:56:33Z</time>
      </trkpt>
      <trkpt lat="43.23458" lon="5.90008">
        <ele>647.59</ele>
        <time>2022-09-17T06:56:52Z</time>
      </trkpt>
      <trkpt lat="43.23422" lon="5.90066">
        <ele>648.07</ele>
        <time>2022-09-17T06:57:10Z</time>
      </trkpt>
      <trkpt lat="43.23365" lon="5.90103">
        <ele>651.43</ele>
        <time>2022-09-17T06:57:31Z</time>
      </trkpt>
      <trkpt lat="43.23352" lon="5.90151">
        <ele>652.39</ele>
        <time>2022-09-17T06:57:44Z</time>
      </trkpt>
      <trkpt lat="43.23352" lon="5.90227">
        <ele>655.76</ele>
        <time>2022-09-17T06:58:04Z</time>
      </trkpt>
      <trkpt lat="43.23366" lon="5.9029">
        <ele>659.6</ele>
        <time>2022-09-17T06:58:22Z</time>
      </trkpt>
      <trkpt lat="43.23377" lon="5.90351">
        <ele>662.97</ele>
        <time>2022-09-17T06:58:40Z</time>
      </trkpt>
      <trkpt lat="43.23385" lon="5.90397">
        <ele>666.33</ele>
        <time>2022-09-17T06:58:55Z</time>
      </trkpt>
      <trkpt lat="43.2339" lon="5.90426">
        <ele>670.18</ele>
        <time>2022-09-17T06:59:04Z</time>
      </trkpt>
      <trkpt lat="43.23402" lon="5.90474">
        <ele>674.02</ele>
        <time>2022-09-17T06:59:21Z</time>
      </trkpt>
      <trkpt lat="43.23414" lon="5.905">
        <ele>676.91</ele>
        <time>2022-09-17T06:59:33Z</time>
      </trkpt>
      <trkpt lat="43.23428" lon="5.90522">
        <ele>678.83</ele>
        <time>2022-09-17T06:59:43Z</time>
      </trkpt>
      <trkpt lat="43.23436" lon="5.90573">
        <ele>682.19</ele>
        <time>2022-09-17T07:00:02Z</time>
      </trkpt>
      <trkpt lat="43.23425" lon="5.90626">
        <ele>685.08</ele>
        <time>2022-09-17T07:00:19Z</time>
      </trkpt>
      <trkpt lat="43.23403" lon="5.907">
        <ele>685.56</ele>
        <time>2022-09-17T07:00:40Z</time>
      </trkpt>
      <trkpt lat="43.23365" lon="5.90768">
        <ele>683.63</ele>
        <time>2022-09-17T07:00:56Z</time>
      </trkpt>
      <trkpt lat="43.23297" lon="5.90872">
        <ele>681.23</ele>
        <time>2022-09-17T07:01:14Z</time>
      </trkpt>
      <trkpt lat="43.23257" lon="5.90922">
        <ele>677.39</ele>
        <time>2022-09-17T07:01:21Z</time>
      </trkpt>
      <trkpt lat="43.23249" lon="5.90928">
        <ele>676.91</ele>
        <time>2022-09-17T07:01:22Z</time>
      </trkpt>
      <trkpt lat="43.2324" lon="5.90932">
        <ele>676.42</ele>
        <time>2022-09-17T07:01:23Z</time>
      </trkpt>
      <trkpt lat="43.23231" lon="5.90935">
        <ele>675.94</ele>
        <time>2022-09-17T07:01:24Z</time>
      </trkpt>
      <trkpt lat="43.23224" lon="5.90938">
        <ele>675.46</ele>
        <time>2022-09-17T07:01:25Z</time>
      </trkpt>
      <trkpt lat="43.23216" lon="5.90942">
        <ele>674.98</ele>
        <time>2022-09-17T07:01:26Z</time>
      </trkpt>
      <trkpt lat="43.2321" lon="5.90949">
        <ele>674.98</ele>
        <time>2022-09-17T07:01:27Z</time>
      </trkpt>
      <trkpt lat="43.23205" lon="5.90956">
        <ele>674.5</ele>
        <time>2022-09-17T07:01:28Z</time>
      </trkpt>
      <trkpt lat="43.23199" lon="5.90964">
        <ele>674.02</ele>
        <time>2022-09-17T07:01:29Z</time>
      </trkpt>
      <trkpt lat="43.23129" lon="5.91082">
        <ele>670.18</ele>
        <time>2022-09-17T07:01:42Z</time>
      </trkpt>
      <trkpt lat="43.23122" lon="5.9109">
        <ele>669.7</ele>
        <time>2022-09-17T07:01:43Z</time>
      </trkpt>
      <trkpt lat="43.23115" lon="5.91098">
        <ele>669.22</ele>
        <time>2022-09-17T07:01:44Z</time>
      </trkpt>
      <trkpt lat="43.23106" lon="5.91104">
        <ele>668.73</ele>
        <time>2022-09-17T07:01:45Z</time>
      </trkpt>
      <trkpt lat="43.23097" lon="5.9111">
        <ele>667.77</ele>
        <time>2022-09-17T07:01:46Z</time>
      </trkpt>
      <trkpt lat="43.23018" lon="5.91183">
        <ele>662.97</ele>
        <time>2022-09-17T07:01:55Z</time>
      </trkpt>
      <trkpt lat="43.23011" lon="5.91196">
        <ele>662.49</ele>
        <time>2022-09-17T07:01:56Z</time>
      </trkpt>
      <trkpt lat="43.23005" lon="5.9121">
        <ele>661.52</ele>
        <time>2022-09-17T07:01:57Z</time>
      </trkpt>
      <trkpt lat="43.22954" lon="5.91301">
        <ele>656.72</ele>
        <time>2022-09-17T07:02:04Z</time>
      </trkpt>
      <trkpt lat="43.22844" lon="5.91386">
        <ele>648.55</ele>
        <time>2022-09-17T07:02:14Z</time>
      </trkpt>
      <trkpt lat="43.22834" lon="5.91397">
        <ele>647.59</ele>
        <time>2022-09-17T07:02:15Z</time>
      </trkpt>
      <trkpt lat="43.22826" lon="5.9141">
        <ele>647.1</ele>
        <time>2022-09-17T07:02:16Z</time>
      </trkpt>
      <trkpt lat="43.22784" lon="5.91476">
        <ele>642.78</ele>
        <time>2022-09-17T07:02:21Z</time>
      </trkpt>
      <trkpt lat="43.22774" lon="5.91487">
        <ele>641.82</ele>
        <time>2022-09-17T07:02:22Z</time>
      </trkpt>
      <trkpt lat="43.22763" lon="5.91496">
        <ele>641.34</ele>
        <time>2022-09-17T07:02:23Z</time>
      </trkpt>
      <trkpt lat="43.22752" lon="5.91505">
        <ele>640.38</ele>
        <time>2022-09-17T07:02:24Z</time>
      </trkpt>
      <trkpt lat="43.22742" lon="5.91516">
        <ele>639.41</ele>
        <time>2022-09-17T07:02:25Z</time>
      </trkpt>
      <trkpt lat="43.22733" lon="5.91528">
        <ele>638.93</ele>
        <time>2022-09-17T07:02:26Z</time>
      </trkpt>
      <trkpt lat="43.22726" lon="5.91542">
        <ele>637.97</ele>
        <time>2022-09-17T07:02:27Z</time>
      </trkpt>
      <trkpt lat="43.2272" lon="5.91557">
        <ele>637.49</ele>
        <time>2022-09-17T07:02:28Z</time>
      </trkpt>
      <trkpt lat="43.22716" lon="5.91573">
        <ele>636.53</ele>
        <time>2022-09-17T07:02:29Z</time>
      </trkpt>
      <trkpt lat="43.22714" lon="5.91589">
        <ele>635.57</ele>
        <time>2022-09-17T07:02:30Z</time>
      </trkpt>
      <trkpt lat="43.22713" lon="5.91606">
        <ele>635.09</ele>
        <time>2022-09-17T07:02:31Z</time>
      </trkpt>
      <trkpt lat="43.22713" lon="5.91622">
        <ele>634.61</ele>
        <time>2022-09-17T07:02:32Z</time>
      </trkpt>
      <trkpt lat="43.22714" lon="5.91638">
        <ele>634.13</ele>
        <time>2022-09-17T07:02:33Z</time>
      </trkpt>
      <trkpt lat="43.22714" lon="5.91873">
        <ele>621.63</ele>
        <time>2022-09-17T07:02:48Z</time>
      </trkpt>
      <trkpt lat="43.2271" lon="5.92046">
        <ele>618.26</ele>
        <time>2022-09-17T07:03:01Z</time>
      </trkpt>
      <trkpt lat="43.22707" lon="5.92177">
        <ele>619.71</ele>
        <time>2022-09-17T07:03:15Z</time>
      </trkpt>
      <trkpt lat="43.22706" lon="5.92209">
        <ele>620.67</ele>
        <time>2022-09-17T07:03:19Z</time>
      </trkpt>
      <trkpt lat="43.22706" lon="5.92217">
        <ele>621.15</ele>
        <time>2022-09-17T07:03:20Z</time>
      </trkpt>
      <trkpt lat="43.22704" lon="5.92268">
        <ele>624.03</ele>
        <time>2022-09-17T07:03:27Z</time>
      </trkpt>
      <trkpt lat="43.22703" lon="5.92352">
        <ele>626.44</ele>
        <time>2022-09-17T07:03:40Z</time>
      </trkpt>
      <trkpt lat="43.22702" lon="5.92414">
        <ele>628.84</ele>
        <time>2022-09-17T07:03:53Z</time>
      </trkpt>
      <trkpt lat="43.22697" lon="5.92505">
        <ele>633.17</ele>
        <time>2022-09-17T07:04:17Z</time>
      </trkpt>
      <trkpt lat="43.22695" lon="5.92569">
        <ele>635.57</ele>
        <time>2022-09-17T07:04:33Z</time>
      </trkpt>
      <trkpt lat="43.22681" lon="5.92649">
        <ele>637.01</ele>
        <time>2022-09-17T07:04:51Z</time>
      </trkpt>
      <trkpt lat="43.22651" lon="5.92729">
        <ele>638.93</ele>
        <time>2022-09-17T07:05:11Z</time>
      </trkpt>
      <trkpt lat="43.22642" lon="5.92808">
        <ele>642.78</ele>
        <time>2022-09-17T07:05:32Z</time>
      </trkpt>
      <trkpt lat="43.22643" lon="5.92857">
        <ele>646.62</ele>
        <time>2022-09-17T07:05:46Z</time>
      </trkpt>
      <trkpt lat="43.22644" lon="5.92942">
        <ele>651.91</ele>
        <time>2022-09-17T07:06:10Z</time>
      </trkpt>
      <trkpt lat="43.22633" lon="5.93025">
        <ele>656.24</ele>
        <time>2022-09-17T07:06:32Z</time>
      </trkpt>
      <trkpt lat="43.22597" lon="5.93095">
        <ele>657.2</ele>
        <time>2022-09-17T07:06:53Z</time>
      </trkpt>
      <trkpt lat="43.22552" lon="5.93176">
        <ele>657.68</ele>
        <time>2022-09-17T07:07:14Z</time>
      </trkpt>
      <trkpt lat="43.22495" lon="5.93242">
        <ele>656.24</ele>
        <time>2022-09-17T07:07:32Z</time>
      </trkpt>
      <trkpt lat="43.2249" lon="5.93245">
        <ele>656.24</ele>
        <time>2022-09-17T07:07:33Z</time>
      </trkpt>
      <trkpt lat="43.22416" lon="5.93266">
        <ele>649.99</ele>
        <time>2022-09-17T07:07:44Z</time>
      </trkpt>
      <trkpt lat="43.22316" lon="5.93279">
        <ele>640.38</ele>
        <time>2022-09-17T07:07:53Z</time>
      </trkpt>
      <trkpt lat="43.22305" lon="5.93283">
        <ele>639.41</ele>
        <time>2022-09-17T07:07:54Z</time>
      </trkpt>
      <trkpt lat="43.22294" lon="5.9329">
        <ele>637.97</ele>
        <time>2022-09-17T07:07:55Z</time>
      </trkpt>
      <trkpt lat="43.22286" lon="5.93301">
        <ele>637.01</ele>
        <time>2022-09-17T07:07:56Z</time>
      </trkpt>
      <trkpt lat="43.22279" lon="5.93312">
        <ele>636.05</ele>
        <time>2022-09-17T07:07:57Z</time>
      </trkpt>
      <trkpt lat="43.22271" lon="5.93324">
        <ele>635.57</ele>
        <time>2022-09-17T07:07:58Z</time>
      </trkpt>
      <trkpt lat="43.22183" lon="5.93494">
        <ele>629.8</ele>
        <time>2022-09-17T07:08:11Z</time>
      </trkpt>
      <trkpt lat="43.22113" lon="5.93626">
        <ele>633.17</ele>
        <time>2022-09-17T07:08:23Z</time>
      </trkpt>
      <trkpt lat="43.22108" lon="5.93634">
        <ele>633.65</ele>
        <time>2022-09-17T07:08:24Z</time>
      </trkpt>
      <trkpt lat="43.22102" lon="5.9364">
        <ele>633.65</ele>
        <time>2022-09-17T07:08:25Z</time>
      </trkpt>
      <trkpt lat="43.22095" lon="5.93645">
        <ele>634.13</ele>
        <time>2022-09-17T07:08:26Z</time>
      </trkpt>
      <trkpt lat="43.22089" lon="5.93648">
        <ele>634.13</ele>
        <time>2022-09-17T07:08:27Z</time>
      </trkpt>
      <trkpt lat="43.22083" lon="5.93649">
        <ele>634.61</ele>
        <time>2022-09-17T07:08:28Z</time>
      </trkpt>
      <trkpt lat="43.22076" lon="5.93648">
        <ele>634.61</ele>
        <time>2022-09-17T07:08:29Z</time>
      </trkpt>
      <trkpt lat="43.2207" lon="5.93646">
        <ele>634.61</ele>
        <time>2022-09-17T07:08:30Z</time>
      </trkpt>
      <trkpt lat="43.22065" lon="5.93642">
        <ele>634.61</ele>
        <time>2022-09-17T07:08:31Z</time>
      </trkpt>
      <trkpt lat="43.22059" lon="5.93639">
        <ele>634.61</ele>
        <time>2022-09-17T07:08:32Z</time>
      </trkpt>
      <trkpt lat="43.22042" lon="5.93628">
        <ele>636.53</ele>
        <time>2022-09-17T07:08:36Z</time>
      </trkpt>
      <trkpt lat="43.22038" lon="5.93627">
        <ele>637.01</ele>
        <time>2022-09-17T07:08:37Z</time>
      </trkpt>
      <trkpt lat="43.22035" lon="5.93626">
        <ele>637.49</ele>
        <time>2022-09-17T07:08:38Z</time>
      </trkpt>
      <trkpt lat="43.22031" lon="5.93627">
        <ele>637.49</ele>
        <time>2022-09-17T07:08:39Z</time>
      </trkpt>
      <trkpt lat="43.22028" lon="5.93629">
        <ele>638.45</ele>
        <time>2022-09-17T07:08:40Z</time>
      </trkpt>
      <trkpt lat="43.22026" lon="5.93633">
        <ele>638.93</ele>
        <time>2022-09-17T07:08:41Z</time>
      </trkpt>
      <trkpt lat="43.22024" lon="5.93637">
        <ele>639.41</ele>
        <time>2022-09-17T07:08:42Z</time>
      </trkpt>
      <trkpt lat="43.22023" lon="5.93641">
        <ele>639.41</ele>
        <time>2022-09-17T07:08:43Z</time>
      </trkpt>
      <trkpt lat="43.22023" lon="5.93646">
        <ele>639.41</ele>
        <time>2022-09-17T07:08:44Z</time>
      </trkpt>
      <trkpt lat="43.22023" lon="5.93651">
        <ele>639.41</ele>
        <time>2022-09-17T07:08:45Z</time>
      </trkpt>
      <trkpt lat="43.22029" lon="5.9371">
        <ele>643.26</ele>
        <time>2022-09-17T07:08:59Z</time>
      </trkpt>
      <trkpt lat="43.22017" lon="5.93785">
        <ele>648.55</ele>
        <time>2022-09-17T07:09:18Z</time>
      </trkpt>
      <trkpt lat="43.21969" lon="5.93838">
        <ele>648.55</ele>
        <time>2022-09-17T07:09:33Z</time>
      </trkpt>
      <trkpt lat="43.21897" lon="5.93916">
        <ele>645.66</ele>
        <time>2022-09-17T07:09:47Z</time>
      </trkpt>
      <trkpt lat="43.21876" lon="5.93943">
        <ele>646.62</ele>
        <time>2022-09-17T07:09:52Z</time>
      </trkpt>
      <trkpt lat="43.21872" lon="5.93949">
        <ele>647.1</ele>
        <time>2022-09-17T07:09:53Z</time>
      </trkpt>
      <trkpt lat="43.21868" lon="5.93954">
        <ele>647.1</ele>
        <time>2022-09-17T07:09:54Z</time>
      </trkpt>
      <trkpt lat="43.21864" lon="5.9396">
        <ele>647.1</ele>
        <time>2022-09-17T07:09:55Z</time>
      </trkpt>
      <trkpt lat="43.21859" lon="5.93965">
        <ele>647.59</ele>
        <time>2022-09-17T07:09:56Z</time>
      </trkpt>
      <trkpt lat="43.21843" lon="5.93985">
        <ele>648.07</ele>
        <time>2022-09-17T07:10:00Z</time>
      </trkpt>
      <trkpt lat="43.21839" lon="5.9399">
        <ele>647.59</ele>
        <time>2022-09-17T07:10:01Z</time>
      </trkpt>
      <trkpt lat="43.21788" lon="5.94067">
        <ele>649.99</ele>
        <time>2022-09-17T07:10:17Z</time>
      </trkpt>
      <trkpt lat="43.21773" lon="5.941">
        <ele>650.95</ele>
        <time>2022-09-17T07:10:24Z</time>
      </trkpt>
      <trkpt lat="43.21771" lon="5.94105">
        <ele>650.47</ele>
        <time>2022-09-17T07:10:25Z</time>
      </trkpt>
      <trkpt lat="43.2177" lon="5.94111">
        <ele>650.47</ele>
        <time>2022-09-17T07:10:26Z</time>
      </trkpt>
      <trkpt lat="43.2177" lon="5.94117">
        <ele>650.47</ele>
        <time>2022-09-17T07:10:27Z</time>
      </trkpt>
      <trkpt lat="43.2177" lon="5.94123">
        <ele>650.47</ele>
        <time>2022-09-17T07:10:28Z</time>
      </trkpt>
      <trkpt lat="43.21771" lon="5.94136">
        <ele>650.95</ele>
        <time>2022-09-17T07:10:30Z</time>
      </trkpt>
      <trkpt lat="43.21772" lon="5.94143">
        <ele>651.43</ele>
        <time>2022-09-17T07:10:31Z</time>
      </trkpt>
      <trkpt lat="43.21773" lon="5.94149">
        <ele>651.43</ele>
        <time>2022-09-17T07:10:32Z</time>
      </trkpt>
      <trkpt lat="43.21778" lon="5.94188">
        <ele>653.83</ele>
        <time>2022-09-17T07:10:39Z</time>
      </trkpt>
      <trkpt lat="43.21777" lon="5.94199">
        <ele>653.83</ele>
        <time>2022-09-17T07:10:41Z</time>
      </trkpt>
      <trkpt lat="43.21758" lon="5.94259">
        <ele>655.76</ele>
        <time>2022-09-17T07:10:53Z</time>
      </trkpt>
      <trkpt lat="43.21718" lon="5.94344">
        <ele>656.24</ele>
        <time>2022-09-17T07:11:09Z</time>
      </trkpt>
      <trkpt lat="43.21715" lon="5.9435">
        <ele>656.24</ele>
        <time>2022-09-17T07:11:10Z</time>
      </trkpt>
      <trkpt lat="43.21666" lon="5.9445">
        <ele>652.39</ele>
        <time>2022-09-17T07:11:24Z</time>
      </trkpt>
      <trkpt lat="43.21646" lon="5.94501">
        <ele>649.03</ele>
        <time>2022-09-17T07:11:29Z</time>
      </trkpt>
      <trkpt lat="43.21645" lon="5.94511">
        <ele>648.55</ele>
        <time>2022-09-17T07:11:30Z</time>
      </trkpt>
      <trkpt lat="43.21644" lon="5.94522">
        <ele>648.07</ele>
        <time>2022-09-17T07:11:31Z</time>
      </trkpt>
      <trkpt lat="43.21646" lon="5.94532">
        <ele>647.59</ele>
        <time>2022-09-17T07:11:32Z</time>
      </trkpt>
      <trkpt lat="43.21647" lon="5.94544">
        <ele>646.62</ele>
        <time>2022-09-17T07:11:33Z</time>
      </trkpt>
      <trkpt lat="43.21648" lon="5.94555">
        <ele>645.66</ele>
        <time>2022-09-17T07:11:34Z</time>
      </trkpt>
      <trkpt lat="43.21649" lon="5.94567">
        <ele>644.7</ele>
        <time>2022-09-17T07:11:35Z</time>
      </trkpt>
      <trkpt lat="43.21647" lon="5.94578">
        <ele>643.74</ele>
        <time>2022-09-17T07:11:36Z</time>
      </trkpt>
      <trkpt lat="43.21644" lon="5.9459">
        <ele>643.26</ele>
        <time>2022-09-17T07:11:37Z</time>
      </trkpt>
      <trkpt lat="43.21639" lon="5.946">
        <ele>642.78</ele>
        <time>2022-09-17T07:11:38Z</time>
      </trkpt>
      <trkpt lat="43.21633" lon="5.94609">
        <ele>642.78</ele>
        <time>2022-09-17T07:11:39Z</time>
      </trkpt>
      <trkpt lat="43.21626" lon="5.94617">
        <ele>642.3</ele>
        <time>2022-09-17T07:11:40Z</time>
      </trkpt>
      <trkpt lat="43.21619" lon="5.94624">
        <ele>641.82</ele>
        <time>2022-09-17T07:11:41Z</time>
      </trkpt>
      <trkpt lat="43.21605" lon="5.94639">
        <ele>641.34</ele>
        <time>2022-09-17T07:11:43Z</time>
      </trkpt>
      <trkpt lat="43.21577" lon="5.94661">
        <ele>639.89</ele>
        <time>2022-09-17T07:11:47Z</time>
      </trkpt>
      <trkpt lat="43.21569" lon="5.94666">
        <ele>639.41</ele>
        <time>2022-09-17T07:11:48Z</time>
      </trkpt>
      <trkpt lat="43.21534" lon="5.94705">
        <ele>636.05</ele>
        <time>2022-09-17T07:11:53Z</time>
      </trkpt>
      <trkpt lat="43.21529" lon="5.94715">
        <ele>635.57</ele>
        <time>2022-09-17T07:11:54Z</time>
      </trkpt>
      <trkpt lat="43.21485" lon="5.94812">
        <ele>635.57</ele>
        <time>2022-09-17T07:12:04Z</time>
      </trkpt>
      <trkpt lat="43.2144" lon="5.94916">
        <ele>638.93</ele>
        <time>2022-09-17T07:12:18Z</time>
      </trkpt>
      <trkpt lat="43.21435" lon="5.94931">
        <ele>639.41</ele>
        <time>2022-09-17T07:12:20Z</time>
      </trkpt>
      <trkpt lat="43.21434" lon="5.94938">
        <ele>639.41</ele>
        <time>2022-09-17T07:12:21Z</time>
      </trkpt>
      <trkpt lat="43.2143" lon="5.94985">
        <ele>639.89</ele>
        <time>2022-09-17T07:12:27Z</time>
      </trkpt>
      <trkpt lat="43.21431" lon="5.95074">
        <ele>639.89</ele>
        <time>2022-09-17T07:12:38Z</time>
      </trkpt>
      <trkpt lat="43.21433" lon="5.95082">
        <ele>639.89</ele>
        <time>2022-09-17T07:12:39Z</time>
      </trkpt>
      <trkpt lat="43.21465" lon="5.95225">
        <ele>638.45</ele>
        <time>2022-09-17T07:12:57Z</time>
      </trkpt>
      <trkpt lat="43.21471" lon="5.95275">
        <ele>635.57</ele>
        <time>2022-09-17T07:13:02Z</time>
      </trkpt>
      <trkpt lat="43.21471" lon="5.95287">
        <ele>634.61</ele>
        <time>2022-09-17T07:13:03Z</time>
      </trkpt>
      <trkpt lat="43.2147" lon="5.95299">
        <ele>633.65</ele>
        <time>2022-09-17T07:13:04Z</time>
      </trkpt>
      <trkpt lat="43.21468" lon="5.9531">
        <ele>632.2</ele>
        <time>2022-09-17T07:13:05Z</time>
      </trkpt>
      <trkpt lat="43.21464" lon="5.95322">
        <ele>631.72</ele>
        <time>2022-09-17T07:13:06Z</time>
      </trkpt>
      <trkpt lat="43.2146" lon="5.95333">
        <ele>630.76</ele>
        <time>2022-09-17T07:13:07Z</time>
      </trkpt>
      <trkpt lat="43.21422" lon="5.95415">
        <ele>624.99</ele>
        <time>2022-09-17T07:13:14Z</time>
      </trkpt>
      <trkpt lat="43.21414" lon="5.95425">
        <ele>624.51</ele>
        <time>2022-09-17T07:13:15Z</time>
      </trkpt>
      <trkpt lat="43.21405" lon="5.95435">
        <ele>624.03</ele>
        <time>2022-09-17T07:13:16Z</time>
      </trkpt>
      <trkpt lat="43.21285" lon="5.95547">
        <ele>611.06</ele>
        <time>2022-09-17T07:13:28Z</time>
      </trkpt>
      <trkpt lat="43.21193" lon="5.95653">
        <ele>600.48</ele>
        <time>2022-09-17T07:13:38Z</time>
      </trkpt>
      <trkpt lat="43.21177" lon="5.95674">
        <ele>599.04</ele>
        <time>2022-09-17T07:13:40Z</time>
      </trkpt>
      <trkpt lat="43.21169" lon="5.95681">
        <ele>598.56</ele>
        <time>2022-09-17T07:13:41Z</time>
      </trkpt>
      <trkpt lat="43.21161" lon="5.95688">
        <ele>597.6</ele>
        <time>2022-09-17T07:13:42Z</time>
      </trkpt>
      <trkpt lat="43.21153" lon="5.95692">
        <ele>597.12</ele>
        <time>2022-09-17T07:13:43Z</time>
      </trkpt>
      <trkpt lat="43.21147" lon="5.95697">
        <ele>596.64</ele>
        <time>2022-09-17T07:13:44Z</time>
      </trkpt>
      <trkpt lat="43.21142" lon="5.95703">
        <ele>596.64</ele>
        <time>2022-09-17T07:13:45Z</time>
      </trkpt>
      <trkpt lat="43.21141" lon="5.9571">
        <ele>595.67</ele>
        <time>2022-09-17T07:13:46Z</time>
      </trkpt>
      <trkpt lat="43.21144" lon="5.95716">
        <ele>595.67</ele>
        <time>2022-09-17T07:13:47Z</time>
      </trkpt>
      <trkpt lat="43.21149" lon="5.9572">
        <ele>595.19</ele>
        <time>2022-09-17T07:13:48Z</time>
      </trkpt>
      <trkpt lat="43.21154" lon="5.95721">
        <ele>594.71</ele>
        <time>2022-09-17T07:13:49Z</time>
      </trkpt>
      <trkpt lat="43.21161" lon="5.9572">
        <ele>594.23</ele>
        <time>2022-09-17T07:13:50Z</time>
      </trkpt>
      <trkpt lat="43.21168" lon="5.95718">
        <ele>594.23</ele>
        <time>2022-09-17T07:13:51Z</time>
      </trkpt>
      <trkpt lat="43.21257" lon="5.95697">
        <ele>587.02</ele>
        <time>2022-09-17T07:14:02Z</time>
      </trkpt>
      <trkpt lat="43.21374" lon="5.95671">
        <ele>578.37</ele>
        <time>2022-09-17T07:14:14Z</time>
      </trkpt>
      <trkpt lat="43.21381" lon="5.9567">
        <ele>578.37</ele>
        <time>2022-09-17T07:14:15Z</time>
      </trkpt>
      <trkpt lat="43.21388" lon="5.95671">
        <ele>577.89</ele>
        <time>2022-09-17T07:14:16Z</time>
      </trkpt>
      <trkpt lat="43.21393" lon="5.95674">
        <ele>577.41</ele>
        <time>2022-09-17T07:14:17Z</time>
      </trkpt>
      <trkpt lat="43.21396" lon="5.95679">
        <ele>576.93</ele>
        <time>2022-09-17T07:14:18Z</time>
      </trkpt>
      <trkpt lat="43.21395" lon="5.95686">
        <ele>576.45</ele>
        <time>2022-09-17T07:14:19Z</time>
      </trkpt>
      <trkpt lat="43.21393" lon="5.95693">
        <ele>575.97</ele>
        <time>2022-09-17T07:14:20Z</time>
      </trkpt>
      <trkpt lat="43.21389" lon="5.957">
        <ele>575.49</ele>
        <time>2022-09-17T07:14:21Z</time>
      </trkpt>
      <trkpt lat="43.21385" lon="5.95707">
        <ele>575.01</ele>
        <time>2022-09-17T07:14:22Z</time>
      </trkpt>
      <trkpt lat="43.2137" lon="5.95728">
        <ele>573.56</ele>
        <time>2022-09-17T07:14:25Z</time>
      </trkpt>
      <trkpt lat="43.21315" lon="5.9581">
        <ele>568.28</ele>
        <time>2022-09-17T07:14:34Z</time>
      </trkpt>
      <trkpt lat="43.21307" lon="5.95833">
        <ele>566.83</ele>
        <time>2022-09-17T07:14:36Z</time>
      </trkpt>
      <trkpt lat="43.21294" lon="5.95889">
        <ele>563.95</ele>
        <time>2022-09-17T07:14:40Z</time>
      </trkpt>
      <trkpt lat="43.21284" lon="5.95942">
        <ele>560.11</ele>
        <time>2022-09-17T07:14:44Z</time>
      </trkpt>
      <trkpt lat="43.21279" lon="5.95954">
        <ele>559.62</ele>
        <time>2022-09-17T07:14:45Z</time>
      </trkpt>
      <trkpt lat="43.21273" lon="5.95965">
        <ele>558.66</ele>
        <time>2022-09-17T07:14:46Z</time>
      </trkpt>
      <trkpt lat="43.21267" lon="5.95975">
        <ele>558.18</ele>
        <time>2022-09-17T07:14:47Z</time>
      </trkpt>
      <trkpt lat="43.21261" lon="5.95984">
        <ele>557.7</ele>
        <time>2022-09-17T07:14:48Z</time>
      </trkpt>
      <trkpt lat="43.21255" lon="5.95992">
        <ele>557.22</ele>
        <time>2022-09-17T07:14:49Z</time>
      </trkpt>
      <trkpt lat="43.21252" lon="5.96001">
        <ele>556.26</ele>
        <time>2022-09-17T07:14:50Z</time>
      </trkpt>
      <trkpt lat="43.21252" lon="5.96011">
        <ele>555.78</ele>
        <time>2022-09-17T07:14:51Z</time>
      </trkpt>
      <trkpt lat="43.21256" lon="5.96021">
        <ele>555.3</ele>
        <time>2022-09-17T07:14:52Z</time>
      </trkpt>
      <trkpt lat="43.2126" lon="5.96032">
        <ele>554.82</ele>
        <time>2022-09-17T07:14:53Z</time>
      </trkpt>
      <trkpt lat="43.21262" lon="5.96043">
        <ele>554.34</ele>
        <time>2022-09-17T07:14:54Z</time>
      </trkpt>
      <trkpt lat="43.21261" lon="5.96053">
        <ele>553.38</ele>
        <time>2022-09-17T07:14:55Z</time>
      </trkpt>
      <trkpt lat="43.21257" lon="5.96064">
        <ele>552.9</ele>
        <time>2022-09-17T07:14:56Z</time>
      </trkpt>
      <trkpt lat="43.21252" lon="5.96073">
        <ele>552.41</ele>
        <time>2022-09-17T07:14:57Z</time>
      </trkpt>
      <trkpt lat="43.2121" lon="5.96192">
        <ele>545.69</ele>
        <time>2022-09-17T07:15:07Z</time>
      </trkpt>
      <trkpt lat="43.21204" lon="5.96202">
        <ele>545.2</ele>
        <time>2022-09-17T07:15:08Z</time>
      </trkpt>
      <trkpt lat="43.21189" lon="5.96216">
        <ele>543.76</ele>
        <time>2022-09-17T07:15:10Z</time>
      </trkpt>
      <trkpt lat="43.2118" lon="5.96219">
        <ele>542.8</ele>
        <time>2022-09-17T07:15:11Z</time>
      </trkpt>
      <trkpt lat="43.21171" lon="5.96219">
        <ele>541.84</ele>
        <time>2022-09-17T07:15:12Z</time>
      </trkpt>
      <trkpt lat="43.21162" lon="5.96218">
        <ele>541.36</ele>
        <time>2022-09-17T07:15:13Z</time>
      </trkpt>
      <trkpt lat="43.21154" lon="5.96214">
        <ele>540.88</ele>
        <time>2022-09-17T07:15:14Z</time>
      </trkpt>
      <trkpt lat="43.21146" lon="5.96209">
        <ele>539.92</ele>
        <time>2022-09-17T07:15:15Z</time>
      </trkpt>
      <trkpt lat="43.21139" lon="5.96202">
        <ele>539.44</ele>
        <time>2022-09-17T07:15:16Z</time>
      </trkpt>
      <trkpt lat="43.21132" lon="5.96195">
        <ele>538.48</ele>
        <time>2022-09-17T07:15:17Z</time>
      </trkpt>
      <trkpt lat="43.21123" lon="5.96188">
        <ele>537.99</ele>
        <time>2022-09-17T07:15:18Z</time>
      </trkpt>
      <trkpt lat="43.21114" lon="5.96182">
        <ele>537.03</ele>
        <time>2022-09-17T07:15:19Z</time>
      </trkpt>
      <trkpt lat="43.21104" lon="5.96177">
        <ele>536.55</ele>
        <time>2022-09-17T07:15:20Z</time>
      </trkpt>
      <trkpt lat="43.21093" lon="5.96174">
        <ele>536.07</ele>
        <time>2022-09-17T07:15:21Z</time>
      </trkpt>
      <trkpt lat="43.21083" lon="5.96171">
        <ele>535.11</ele>
        <time>2022-09-17T07:15:22Z</time>
      </trkpt>
      <trkpt lat="43.21024" lon="5.96161">
        <ele>530.79</ele>
        <time>2022-09-17T07:15:28Z</time>
      </trkpt>
      <trkpt lat="43.21014" lon="5.96164">
        <ele>530.3</ele>
        <time>2022-09-17T07:15:29Z</time>
      </trkpt>
      <trkpt lat="43.21006" lon="5.9617">
        <ele>529.34</ele>
        <time>2022-09-17T07:15:30Z</time>
      </trkpt>
      <trkpt lat="43.20999" lon="5.96178">
        <ele>528.86</ele>
        <time>2022-09-17T07:15:31Z</time>
      </trkpt>
      <trkpt lat="43.20993" lon="5.96187">
        <ele>528.38</ele>
        <time>2022-09-17T07:15:32Z</time>
      </trkpt>
      <trkpt lat="43.20988" lon="5.96197">
        <ele>527.42</ele>
        <time>2022-09-17T07:15:33Z</time>
      </trkpt>
      <trkpt lat="43.20983" lon="5.96208">
        <ele>526.94</ele>
        <time>2022-09-17T07:15:34Z</time>
      </trkpt>
      <trkpt lat="43.20966" lon="5.96253">
        <ele>524.54</ele>
        <time>2022-09-17T07:15:38Z</time>
      </trkpt>
      <trkpt lat="43.20963" lon="5.96265">
        <ele>524.06</ele>
        <time>2022-09-17T07:15:39Z</time>
      </trkpt>
      <trkpt lat="43.20962" lon="5.96278">
        <ele>523.09</ele>
        <time>2022-09-17T07:15:40Z</time>
      </trkpt>
      <trkpt lat="43.20963" lon="5.9629">
        <ele>522.13</ele>
        <time>2022-09-17T07:15:41Z</time>
      </trkpt>
      <trkpt lat="43.20965" lon="5.96302">
        <ele>521.17</ele>
        <time>2022-09-17T07:15:42Z</time>
      </trkpt>
      <trkpt lat="43.20969" lon="5.96313">
        <ele>520.21</ele>
        <time>2022-09-17T07:15:43Z</time>
      </trkpt>
      <trkpt lat="43.20972" lon="5.96325">
        <ele>519.73</ele>
        <time>2022-09-17T07:15:44Z</time>
      </trkpt>
      <trkpt lat="43.20994" lon="5.96378">
        <ele>515.4</ele>
        <time>2022-09-17T07:15:49Z</time>
      </trkpt>
      <trkpt lat="43.21002" lon="5.96386">
        <ele>514.92</ele>
        <time>2022-09-17T07:15:50Z</time>
      </trkpt>
      <trkpt lat="43.2101" lon="5.96391">
        <ele>513.96</ele>
        <time>2022-09-17T07:15:51Z</time>
      </trkpt>
      <trkpt lat="43.2102" lon="5.96394">
        <ele>513.48</ele>
        <time>2022-09-17T07:15:52Z</time>
      </trkpt>
      <trkpt lat="43.2103" lon="5.96396">
        <ele>513</ele>
        <time>2022-09-17T07:15:53Z</time>
      </trkpt>
      <trkpt lat="43.21132" lon="5.96413">
        <ele>512.04</ele>
        <time>2022-09-17T07:16:04Z</time>
      </trkpt>
      <trkpt lat="43.21154" lon="5.9642">
        <ele>511.08</ele>
        <time>2022-09-17T07:16:07Z</time>
      </trkpt>
      <trkpt lat="43.2116" lon="5.96425">
        <ele>510.6</ele>
        <time>2022-09-17T07:16:08Z</time>
      </trkpt>
      <trkpt lat="43.21167" lon="5.9643">
        <ele>510.12</ele>
        <time>2022-09-17T07:16:09Z</time>
      </trkpt>
      <trkpt lat="43.21173" lon="5.96436">
        <ele>510.12</ele>
        <time>2022-09-17T07:16:10Z</time>
      </trkpt>
      <trkpt lat="43.21179" lon="5.96444">
        <ele>510.6</ele>
        <time>2022-09-17T07:16:11Z</time>
      </trkpt>
      <trkpt lat="43.21183" lon="5.96452">
        <ele>510.12</ele>
        <time>2022-09-17T07:16:12Z</time>
      </trkpt>
      <trkpt lat="43.21187" lon="5.9646">
        <ele>509.64</ele>
        <time>2022-09-17T07:16:13Z</time>
      </trkpt>
      <trkpt lat="43.21188" lon="5.96471">
        <ele>509.64</ele>
        <time>2022-09-17T07:16:14Z</time>
      </trkpt>
      <trkpt lat="43.21187" lon="5.96481">
        <ele>509.16</ele>
        <time>2022-09-17T07:16:15Z</time>
      </trkpt>
      <trkpt lat="43.21184" lon="5.9649">
        <ele>508.19</ele>
        <time>2022-09-17T07:16:16Z</time>
      </trkpt>
      <trkpt lat="43.2118" lon="5.96499">
        <ele>507.71</ele>
        <time>2022-09-17T07:16:17Z</time>
      </trkpt>
      <trkpt lat="43.21175" lon="5.96508">
        <ele>508.19</ele>
        <time>2022-09-17T07:16:18Z</time>
      </trkpt>
      <trkpt lat="43.21169" lon="5.96517">
        <ele>507.71</ele>
        <time>2022-09-17T07:16:19Z</time>
      </trkpt>
      <trkpt lat="43.21163" lon="5.96526">
        <ele>506.75</ele>
        <time>2022-09-17T07:16:20Z</time>
      </trkpt>
      <trkpt lat="43.21122" lon="5.96601">
        <ele>501.46</ele>
        <time>2022-09-17T07:16:27Z</time>
      </trkpt>
      <trkpt lat="43.21117" lon="5.96612">
        <ele>500.98</ele>
        <time>2022-09-17T07:16:28Z</time>
      </trkpt>
      <trkpt lat="43.21113" lon="5.96624">
        <ele>500.5</ele>
        <time>2022-09-17T07:16:29Z</time>
      </trkpt>
      <trkpt lat="43.2111" lon="5.96636">
        <ele>500.02</ele>
        <time>2022-09-17T07:16:30Z</time>
      </trkpt>
      <trkpt lat="43.21108" lon="5.96648">
        <ele>499.54</ele>
        <time>2022-09-17T07:16:31Z</time>
      </trkpt>
      <trkpt lat="43.21107" lon="5.96661">
        <ele>498.58</ele>
        <time>2022-09-17T07:16:32Z</time>
      </trkpt>
      <trkpt lat="43.21106" lon="5.96675">
        <ele>498.1</ele>
        <time>2022-09-17T07:16:33Z</time>
      </trkpt>
      <trkpt lat="43.21098" lon="5.96772">
        <ele>494.26</ele>
        <time>2022-09-17T07:16:40Z</time>
      </trkpt>
      <trkpt lat="43.21094" lon="5.96786">
        <ele>493.29</ele>
        <time>2022-09-17T07:16:41Z</time>
      </trkpt>
      <trkpt lat="43.21038" lon="5.96905">
        <ele>482.24</ele>
        <time>2022-09-17T07:16:50Z</time>
      </trkpt>
      <trkpt lat="43.20988" lon="5.96958">
        <ele>475.51</ele>
        <time>2022-09-17T07:16:56Z</time>
      </trkpt>
      <trkpt lat="43.20983" lon="5.96967">
        <ele>474.07</ele>
        <time>2022-09-17T07:16:57Z</time>
      </trkpt>
      <trkpt lat="43.2098" lon="5.96977">
        <ele>473.11</ele>
        <time>2022-09-17T07:16:58Z</time>
      </trkpt>
      <trkpt lat="43.2098" lon="5.96988">
        <ele>472.14</ele>
        <time>2022-09-17T07:16:59Z</time>
      </trkpt>
      <trkpt lat="43.20982" lon="5.96999">
        <ele>471.66</ele>
        <time>2022-09-17T07:17:00Z</time>
      </trkpt>
      <trkpt lat="43.20985" lon="5.9701">
        <ele>471.18</ele>
        <time>2022-09-17T07:17:01Z</time>
      </trkpt>
      <trkpt lat="43.20988" lon="5.97021">
        <ele>470.22</ele>
        <time>2022-09-17T07:17:02Z</time>
      </trkpt>
      <trkpt lat="43.20992" lon="5.97034">
        <ele>469.74</ele>
        <time>2022-09-17T07:17:03Z</time>
      </trkpt>
      <trkpt lat="43.21001" lon="5.97058">
        <ele>467.82</ele>
        <time>2022-09-17T07:17:05Z</time>
      </trkpt>
      <trkpt lat="43.21041" lon="5.97142">
        <ele>461.57</ele>
        <time>2022-09-17T07:17:12Z</time>
      </trkpt>
      <trkpt lat="43.21048" lon="5.97152">
        <ele>461.57</ele>
        <time>2022-09-17T07:17:13Z</time>
      </trkpt>
      <trkpt lat="43.21056" lon="5.97159">
        <ele>461.57</ele>
        <time>2022-09-17T07:17:14Z</time>
      </trkpt>
      <trkpt lat="43.21063" lon="5.97164">
        <ele>462.53</ele>
        <time>2022-09-17T07:17:15Z</time>
      </trkpt>
      <trkpt lat="43.2107" lon="5.97167">
        <ele>463.01</ele>
        <time>2022-09-17T07:17:16Z</time>
      </trkpt>
      <trkpt lat="43.21076" lon="5.97169">
        <ele>463.49</ele>
        <time>2022-09-17T07:17:17Z</time>
      </trkpt>
      <trkpt lat="43.21121" lon="5.9718">
        <ele>466.38</ele>
        <time>2022-09-17T07:17:28Z</time>
      </trkpt>
      <trkpt lat="43.21162" lon="5.97194">
        <ele>472.14</ele>
        <time>2022-09-17T07:17:42Z</time>
      </trkpt>
      <trkpt lat="43.212" lon="5.97219">
        <ele>480.8</ele>
        <time>2022-09-17T07:17:56Z</time>
      </trkpt>
      <trkpt lat="43.21223" lon="5.97236">
        <ele>485.6</ele>
        <time>2022-09-17T07:18:07Z</time>
      </trkpt>
      <trkpt lat="43.21257" lon="5.97258">
        <ele>491.37</ele>
        <time>2022-09-17T07:18:23Z</time>
      </trkpt>
      <trkpt lat="43.21282" lon="5.97276">
        <ele>495.22</ele>
        <time>2022-09-17T07:18:36Z</time>
      </trkpt>
      <trkpt lat="43.21305" lon="5.97295">
        <ele>498.58</ele>
        <time>2022-09-17T07:18:49Z</time>
      </trkpt>
      <trkpt lat="43.21332" lon="5.97323">
        <ele>500.98</ele>
        <time>2022-09-17T07:19:03Z</time>
      </trkpt>
      <trkpt lat="43.21356" lon="5.97347">
        <ele>500.98</ele>
        <time>2022-09-17T07:19:15Z</time>
      </trkpt>
      <trkpt lat="43.21391" lon="5.9738">
        <ele>497.62</ele>
        <time>2022-09-17T07:19:26Z</time>
      </trkpt>
      <trkpt lat="43.21402" lon="5.97394">
        <ele>496.18</ele>
        <time>2022-09-17T07:19:29Z</time>
      </trkpt>
      <trkpt lat="43.21405" lon="5.974">
        <ele>495.7</ele>
        <time>2022-09-17T07:19:30Z</time>
      </trkpt>
      <trkpt lat="43.21414" lon="5.97419">
        <ele>493.77</ele>
        <time>2022-09-17T07:19:33Z</time>
      </trkpt>
      <trkpt lat="43.21417" lon="5.97426">
        <ele>493.29</ele>
        <time>2022-09-17T07:19:34Z</time>
      </trkpt>
      <trkpt lat="43.21428" lon="5.97449">
        <ele>491.37</ele>
        <time>2022-09-17T07:19:37Z</time>
      </trkpt>
      <trkpt lat="43.21434" lon="5.97456">
        <ele>490.89</ele>
        <time>2022-09-17T07:19:38Z</time>
      </trkpt>
      <trkpt lat="43.21441" lon="5.97461">
        <ele>490.41</ele>
        <time>2022-09-17T07:19:39Z</time>
      </trkpt>
      <trkpt lat="43.21514" lon="5.97498">
        <ele>485.12</ele>
        <time>2022-09-17T07:19:47Z</time>
      </trkpt>
      <trkpt lat="43.21544" lon="5.97506">
        <ele>483.2</ele>
        <time>2022-09-17T07:19:50Z</time>
      </trkpt>
      <trkpt lat="43.21554" lon="5.97511">
        <ele>482.24</ele>
        <time>2022-09-17T07:19:51Z</time>
      </trkpt>
      <trkpt lat="43.21562" lon="5.97519">
        <ele>481.76</ele>
        <time>2022-09-17T07:19:52Z</time>
      </trkpt>
      <trkpt lat="43.21579" lon="5.97533">
        <ele>480.8</ele>
        <time>2022-09-17T07:19:54Z</time>
      </trkpt>
      <trkpt lat="43.21588" lon="5.97539">
        <ele>479.84</ele>
        <time>2022-09-17T07:19:55Z</time>
      </trkpt>
      <trkpt lat="43.21597" lon="5.97543">
        <ele>478.87</ele>
        <time>2022-09-17T07:19:56Z</time>
      </trkpt>
      <trkpt lat="43.21669" lon="5.97574">
        <ele>473.59</ele>
        <time>2022-09-17T07:20:04Z</time>
      </trkpt>
      <trkpt lat="43.21683" lon="5.97588">
        <ele>471.66</ele>
        <time>2022-09-17T07:20:06Z</time>
      </trkpt>
      <trkpt lat="43.21688" lon="5.97597">
        <ele>471.66</ele>
        <time>2022-09-17T07:20:07Z</time>
      </trkpt>
      <trkpt lat="43.21691" lon="5.97609">
        <ele>471.18</ele>
        <time>2022-09-17T07:20:08Z</time>
      </trkpt>
      <trkpt lat="43.21696" lon="5.97632">
        <ele>470.22</ele>
        <time>2022-09-17T07:20:10Z</time>
      </trkpt>
      <trkpt lat="43.21703" lon="5.97679">
        <ele>467.82</ele>
        <time>2022-09-17T07:20:14Z</time>
      </trkpt>
      <trkpt lat="43.21708" lon="5.9769">
        <ele>466.86</ele>
        <time>2022-09-17T07:20:15Z</time>
      </trkpt>
      <trkpt lat="43.21714" lon="5.97699">
        <ele>466.38</ele>
        <time>2022-09-17T07:20:16Z</time>
      </trkpt>
      <trkpt lat="43.2172" lon="5.97707">
        <ele>465.42</ele>
        <time>2022-09-17T07:20:17Z</time>
      </trkpt>
      <trkpt lat="43.21728" lon="5.97715">
        <ele>464.93</ele>
        <time>2022-09-17T07:20:18Z</time>
      </trkpt>
      <trkpt lat="43.21736" lon="5.97722">
        <ele>463.97</ele>
        <time>2022-09-17T07:20:19Z</time>
      </trkpt>
      <trkpt lat="43.21744" lon="5.97728">
        <ele>463.49</ele>
        <time>2022-09-17T07:20:20Z</time>
      </trkpt>
      <trkpt lat="43.21856" lon="5.97787">
        <ele>453.4</ele>
        <time>2022-09-17T07:20:32Z</time>
      </trkpt>
      <trkpt lat="43.21862" lon="5.97792">
        <ele>452.44</ele>
        <time>2022-09-17T07:20:33Z</time>
      </trkpt>
      <trkpt lat="43.21867" lon="5.97797">
        <ele>451.96</ele>
        <time>2022-09-17T07:20:34Z</time>
      </trkpt>
      <trkpt lat="43.21869" lon="5.97804">
        <ele>451</ele>
        <time>2022-09-17T07:20:35Z</time>
      </trkpt>
      <trkpt lat="43.21869" lon="5.97812">
        <ele>450.03</ele>
        <time>2022-09-17T07:20:36Z</time>
      </trkpt>
      <trkpt lat="43.21866" lon="5.97821">
        <ele>449.55</ele>
        <time>2022-09-17T07:20:37Z</time>
      </trkpt>
      <trkpt lat="43.2186" lon="5.97828">
        <ele>448.11</ele>
        <time>2022-09-17T07:20:38Z</time>
      </trkpt>
      <trkpt lat="43.21854" lon="5.97835">
        <ele>447.15</ele>
        <time>2022-09-17T07:20:39Z</time>
      </trkpt>
      <trkpt lat="43.21847" lon="5.97839">
        <ele>446.19</ele>
        <time>2022-09-17T07:20:40Z</time>
      </trkpt>
      <trkpt lat="43.21839" lon="5.97841">
        <ele>445.23</ele>
        <time>2022-09-17T07:20:41Z</time>
      </trkpt>
      <trkpt lat="43.21831" lon="5.97841">
        <ele>443.79</ele>
        <time>2022-09-17T07:20:42Z</time>
      </trkpt>
      <trkpt lat="43.21823" lon="5.9784">
        <ele>443.31</ele>
        <time>2022-09-17T07:20:43Z</time>
      </trkpt>
      <trkpt lat="43.21815" lon="5.97837">
        <ele>442.34</ele>
        <time>2022-09-17T07:20:44Z</time>
      </trkpt>
      <trkpt lat="43.21809" lon="5.97832">
        <ele>441.38</ele>
        <time>2022-09-17T07:20:45Z</time>
      </trkpt>
      <trkpt lat="43.21804" lon="5.97826">
        <ele>441.38</ele>
        <time>2022-09-17T07:20:46Z</time>
      </trkpt>
      <trkpt lat="43.21799" lon="5.97818">
        <ele>440.9</ele>
        <time>2022-09-17T07:20:47Z</time>
      </trkpt>
      <trkpt lat="43.21795" lon="5.97812">
        <ele>439.94</ele>
        <time>2022-09-17T07:20:48Z</time>
      </trkpt>
      <trkpt lat="43.21788" lon="5.97806">
        <ele>438.98</ele>
        <time>2022-09-17T07:20:49Z</time>
      </trkpt>
      <trkpt lat="43.2178" lon="5.97801">
        <ele>438.5</ele>
        <time>2022-09-17T07:20:50Z</time>
      </trkpt>
      <trkpt lat="43.21772" lon="5.97798">
        <ele>437.54</ele>
        <time>2022-09-17T07:20:51Z</time>
      </trkpt>
      <trkpt lat="43.21763" lon="5.97795">
        <ele>437.06</ele>
        <time>2022-09-17T07:20:52Z</time>
      </trkpt>
      <trkpt lat="43.2167" lon="5.97761">
        <ele>427.44</ele>
        <time>2022-09-17T07:21:03Z</time>
      </trkpt>
      <trkpt lat="43.21663" lon="5.97756">
        <ele>426</ele>
        <time>2022-09-17T07:21:04Z</time>
      </trkpt>
      <trkpt lat="43.21648" lon="5.97744">
        <ele>425.52</ele>
        <time>2022-09-17T07:21:06Z</time>
      </trkpt>
      <trkpt lat="43.21634" lon="5.97733">
        <ele>424.56</ele>
        <time>2022-09-17T07:21:08Z</time>
      </trkpt>
      <trkpt lat="43.21627" lon="5.9773">
        <ele>423.6</ele>
        <time>2022-09-17T07:21:09Z</time>
      </trkpt>
      <trkpt lat="43.2162" lon="5.9773">
        <ele>422.64</ele>
        <time>2022-09-17T07:21:10Z</time>
      </trkpt>
      <trkpt lat="43.21607" lon="5.97737">
        <ele>421.19</ele>
        <time>2022-09-17T07:21:12Z</time>
      </trkpt>
      <trkpt lat="43.21606" lon="5.97745">
        <ele>420.71</ele>
        <time>2022-09-17T07:21:13Z</time>
      </trkpt>
      <trkpt lat="43.21609" lon="5.97754">
        <ele>420.23</ele>
        <time>2022-09-17T07:21:14Z</time>
      </trkpt>
      <trkpt lat="43.21614" lon="5.97761">
        <ele>419.27</ele>
        <time>2022-09-17T07:21:15Z</time>
      </trkpt>
      <trkpt lat="43.21619" lon="5.97768">
        <ele>418.79</ele>
        <time>2022-09-17T07:21:16Z</time>
      </trkpt>
      <trkpt lat="43.21665" lon="5.97814">
        <ele>413.02</ele>
        <time>2022-09-17T07:21:24Z</time>
      </trkpt>
      <trkpt lat="43.21671" lon="5.97822">
        <ele>413.02</ele>
        <time>2022-09-17T07:21:25Z</time>
      </trkpt>
      <trkpt lat="43.21696" lon="5.97854">
        <ele>410.14</ele>
        <time>2022-09-17T07:21:29Z</time>
      </trkpt>
      <trkpt lat="43.21704" lon="5.97862">
        <ele>409.66</ele>
        <time>2022-09-17T07:21:30Z</time>
      </trkpt>
      <trkpt lat="43.2172" lon="5.97875">
        <ele>408.22</ele>
        <time>2022-09-17T07:21:32Z</time>
      </trkpt>
      <trkpt lat="43.21729" lon="5.97879">
        <ele>407.26</ele>
        <time>2022-09-17T07:21:33Z</time>
      </trkpt>
      <trkpt lat="43.21746" lon="5.9789">
        <ele>405.81</ele>
        <time>2022-09-17T07:21:35Z</time>
      </trkpt>
      <trkpt lat="43.21752" lon="5.97898">
        <ele>405.81</ele>
        <time>2022-09-17T07:21:36Z</time>
      </trkpt>
      <trkpt lat="43.21757" lon="5.97908">
        <ele>404.85</ele>
        <time>2022-09-17T07:21:37Z</time>
      </trkpt>
      <trkpt lat="43.2176" lon="5.97919">
        <ele>403.89</ele>
        <time>2022-09-17T07:21:38Z</time>
      </trkpt>
      <trkpt lat="43.21764" lon="5.97931">
        <ele>403.89</ele>
        <time>2022-09-17T07:21:39Z</time>
      </trkpt>
      <trkpt lat="43.21768" lon="5.97942">
        <ele>403.41</ele>
        <time>2022-09-17T07:21:40Z</time>
      </trkpt>
      <trkpt lat="43.21772" lon="5.97953">
        <ele>402.45</ele>
        <time>2022-09-17T07:21:41Z</time>
      </trkpt>
      <trkpt lat="43.21778" lon="5.97963">
        <ele>401.97</ele>
        <time>2022-09-17T07:21:42Z</time>
      </trkpt>
      <trkpt lat="43.21784" lon="5.97973">
        <ele>402.45</ele>
        <time>2022-09-17T07:21:43Z</time>
      </trkpt>
      <trkpt lat="43.2179" lon="5.97982">
        <ele>401.97</ele>
        <time>2022-09-17T07:21:44Z</time>
      </trkpt>
      <trkpt lat="43.21797" lon="5.97991">
        <ele>401.97</ele>
        <time>2022-09-17T07:21:45Z</time>
      </trkpt>
      <trkpt lat="43.21801" lon="5.97999">
        <ele>401.97</ele>
        <time>2022-09-17T07:21:46Z</time>
      </trkpt>
      <trkpt lat="43.21804" lon="5.98008">
        <ele>401.01</ele>
        <time>2022-09-17T07:21:47Z</time>
      </trkpt>
      <trkpt lat="43.21804" lon="5.98019">
        <ele>401.01</ele>
        <time>2022-09-17T07:21:48Z</time>
      </trkpt>
      <trkpt lat="43.21801" lon="5.98029">
        <ele>400.53</ele>
        <time>2022-09-17T07:21:49Z</time>
      </trkpt>
      <trkpt lat="43.21796" lon="5.9804">
        <ele>400.05</ele>
        <time>2022-09-17T07:21:50Z</time>
      </trkpt>
      <trkpt lat="43.2179" lon="5.98051">
        <ele>400.53</ele>
        <time>2022-09-17T07:21:51Z</time>
      </trkpt>
      <trkpt lat="43.21782" lon="5.98061">
        <ele>401.01</ele>
        <time>2022-09-17T07:21:52Z</time>
      </trkpt>
      <trkpt lat="43.21774" lon="5.98068">
        <ele>400.05</ele>
        <time>2022-09-17T07:21:53Z</time>
      </trkpt>
      <trkpt lat="43.21766" lon="5.98074">
        <ele>399.57</ele>
        <time>2022-09-17T07:21:54Z</time>
      </trkpt>
      <trkpt lat="43.21757" lon="5.9808">
        <ele>399.08</ele>
        <time>2022-09-17T07:21:55Z</time>
      </trkpt>
      <trkpt lat="43.21721" lon="5.98102">
        <ele>397.16</ele>
        <time>2022-09-17T07:21:59Z</time>
      </trkpt>
      <trkpt lat="43.21712" lon="5.98104">
        <ele>396.2</ele>
        <time>2022-09-17T07:22:00Z</time>
      </trkpt>
      <trkpt lat="43.2165" lon="5.98119">
        <ele>391.87</ele>
        <time>2022-09-17T07:22:06Z</time>
      </trkpt>
      <trkpt lat="43.21641" lon="5.98126">
        <ele>391.39</ele>
        <time>2022-09-17T07:22:07Z</time>
      </trkpt>
      <trkpt lat="43.21634" lon="5.98135">
        <ele>391.39</ele>
        <time>2022-09-17T07:22:08Z</time>
      </trkpt>
      <trkpt lat="43.21628" lon="5.98146">
        <ele>391.39</ele>
        <time>2022-09-17T07:22:09Z</time>
      </trkpt>
      <trkpt lat="43.21622" lon="5.98157">
        <ele>390.91</ele>
        <time>2022-09-17T07:22:10Z</time>
      </trkpt>
      <trkpt lat="43.21575" lon="5.9824">
        <ele>387.07</ele>
        <time>2022-09-17T07:22:18Z</time>
      </trkpt>
      <trkpt lat="43.21489" lon="5.98316">
        <ele>383.7</ele>
        <time>2022-09-17T07:22:28Z</time>
      </trkpt>
      <trkpt lat="43.21372" lon="5.98349">
        <ele>378.9</ele>
        <time>2022-09-17T07:22:40Z</time>
      </trkpt>
      <trkpt lat="43.21277" lon="5.98356">
        <ele>376.01</ele>
        <time>2022-09-17T07:22:50Z</time>
      </trkpt>
      <trkpt lat="43.2122" lon="5.98369">
        <ele>372.65</ele>
        <time>2022-09-17T07:22:56Z</time>
      </trkpt>
      <trkpt lat="43.21211" lon="5.98369">
        <ele>372.17</ele>
        <time>2022-09-17T07:22:57Z</time>
      </trkpt>
      <trkpt lat="43.21202" lon="5.98367">
        <ele>371.69</ele>
        <time>2022-09-17T07:22:58Z</time>
      </trkpt>
      <trkpt lat="43.21176" lon="5.9836">
        <ele>370.24</ele>
        <time>2022-09-17T07:23:01Z</time>
      </trkpt>
      <trkpt lat="43.21167" lon="5.98359">
        <ele>369.76</ele>
        <time>2022-09-17T07:23:02Z</time>
      </trkpt>
      <trkpt lat="43.2115" lon="5.98355">
        <ele>368.8</ele>
        <time>2022-09-17T07:23:04Z</time>
      </trkpt>
      <trkpt lat="43.21141" lon="5.98352">
        <ele>368.32</ele>
        <time>2022-09-17T07:23:05Z</time>
      </trkpt>
      <trkpt lat="43.21132" lon="5.98348">
        <ele>367.36</ele>
        <time>2022-09-17T07:23:06Z</time>
      </trkpt>
      <trkpt lat="43.21124" lon="5.98343">
        <ele>366.88</ele>
        <time>2022-09-17T07:23:07Z</time>
      </trkpt>
      <trkpt lat="43.21116" lon="5.98337">
        <ele>366.88</ele>
        <time>2022-09-17T07:23:08Z</time>
      </trkpt>
      <trkpt lat="43.21083" lon="5.98315">
        <ele>366.4</ele>
        <time>2022-09-17T07:23:12Z</time>
      </trkpt>
      <trkpt lat="43.21075" lon="5.98305">
        <ele>365.44</ele>
        <time>2022-09-17T07:23:13Z</time>
      </trkpt>
      <trkpt lat="43.21069" lon="5.98295">
        <ele>365.92</ele>
        <time>2022-09-17T07:23:14Z</time>
      </trkpt>
      <trkpt lat="43.21065" lon="5.98283">
        <ele>364.96</ele>
        <time>2022-09-17T07:23:15Z</time>
      </trkpt>
      <trkpt lat="43.21061" lon="5.98272">
        <ele>364.48</ele>
        <time>2022-09-17T07:23:16Z</time>
      </trkpt>
      <trkpt lat="43.21056" lon="5.9826">
        <ele>364</ele>
        <time>2022-09-17T07:23:17Z</time>
      </trkpt>
      <trkpt lat="43.21051" lon="5.9825">
        <ele>364</ele>
        <time>2022-09-17T07:23:18Z</time>
      </trkpt>
      <trkpt lat="43.21039" lon="5.98232">
        <ele>364</ele>
        <time>2022-09-17T07:23:20Z</time>
      </trkpt>
      <trkpt lat="43.21036" lon="5.98222">
        <ele>364</ele>
        <time>2022-09-17T07:23:21Z</time>
      </trkpt>
      <trkpt lat="43.21036" lon="5.98211">
        <ele>363.52</ele>
        <time>2022-09-17T07:23:22Z</time>
      </trkpt>
      <trkpt lat="43.21037" lon="5.982">
        <ele>363.52</ele>
        <time>2022-09-17T07:23:23Z</time>
      </trkpt>
      <trkpt lat="43.21039" lon="5.98189">
        <ele>363.04</ele>
        <time>2022-09-17T07:23:24Z</time>
      </trkpt>
      <trkpt lat="43.21038" lon="5.98177">
        <ele>362.55</ele>
        <time>2022-09-17T07:23:25Z</time>
      </trkpt>
      <trkpt lat="43.21035" lon="5.98167">
        <ele>362.07</ele>
        <time>2022-09-17T07:23:26Z</time>
      </trkpt>
      <trkpt lat="43.2103" lon="5.98159">
        <ele>361.59</ele>
        <time>2022-09-17T07:23:27Z</time>
      </trkpt>
      <trkpt lat="43.21024" lon="5.98157">
        <ele>360.63</ele>
        <time>2022-09-17T07:23:28Z</time>
      </trkpt>
      <trkpt lat="43.21016" lon="5.9816">
        <ele>360.15</ele>
        <time>2022-09-17T07:23:29Z</time>
      </trkpt>
      <trkpt lat="43.21009" lon="5.98164">
        <ele>359.67</ele>
        <time>2022-09-17T07:23:30Z</time>
      </trkpt>
      <trkpt lat="43.21001" lon="5.98166">
        <ele>359.19</ele>
        <time>2022-09-17T07:23:31Z</time>
      </trkpt>
      <trkpt lat="43.20993" lon="5.98167">
        <ele>359.19</ele>
        <time>2022-09-17T07:23:32Z</time>
      </trkpt>
      <trkpt lat="43.20985" lon="5.98165">
        <ele>359.19</ele>
        <time>2022-09-17T07:23:33Z</time>
      </trkpt>
      <trkpt lat="43.20979" lon="5.9816">
        <ele>359.19</ele>
        <time>2022-09-17T07:23:34Z</time>
      </trkpt>
      <trkpt lat="43.20976" lon="5.98151">
        <ele>359.19</ele>
        <time>2022-09-17T07:23:35Z</time>
      </trkpt>
      <trkpt lat="43.20972" lon="5.98141">
        <ele>359.19</ele>
        <time>2022-09-17T07:23:36Z</time>
      </trkpt>
      <trkpt lat="43.20961" lon="5.98109">
        <ele>358.71</ele>
        <time>2022-09-17T07:23:39Z</time>
      </trkpt>
      <trkpt lat="43.2096" lon="5.98097">
        <ele>358.71</ele>
        <time>2022-09-17T07:23:40Z</time>
      </trkpt>
      <trkpt lat="43.20961" lon="5.98084">
        <ele>358.23</ele>
        <time>2022-09-17T07:23:41Z</time>
      </trkpt>
      <trkpt lat="43.20958" lon="5.98033">
        <ele>357.27</ele>
        <time>2022-09-17T07:23:45Z</time>
      </trkpt>
      <trkpt lat="43.20954" lon="5.98021">
        <ele>356.79</ele>
        <time>2022-09-17T07:23:46Z</time>
      </trkpt>
      <trkpt lat="43.20949" lon="5.9801">
        <ele>356.31</ele>
        <time>2022-09-17T07:23:47Z</time>
      </trkpt>
      <trkpt lat="43.20926" lon="5.97967">
        <ele>354.38</ele>
        <time>2022-09-17T07:23:51Z</time>
      </trkpt>
      <trkpt lat="43.20918" lon="5.97958">
        <ele>353.42</ele>
        <time>2022-09-17T07:23:52Z</time>
      </trkpt>
      <trkpt lat="43.20911" lon="5.9795">
        <ele>352.94</ele>
        <time>2022-09-17T07:23:53Z</time>
      </trkpt>
      <trkpt lat="43.20835" lon="5.97895">
        <ele>348.62</ele>
        <time>2022-09-17T07:24:02Z</time>
      </trkpt>
      <trkpt lat="43.20825" lon="5.97893">
        <ele>348.13</ele>
        <time>2022-09-17T07:24:03Z</time>
      </trkpt>
      <trkpt lat="43.20815" lon="5.97894">
        <ele>347.65</ele>
        <time>2022-09-17T07:24:04Z</time>
      </trkpt>
      <trkpt lat="43.20805" lon="5.97897">
        <ele>347.17</ele>
        <time>2022-09-17T07:24:05Z</time>
      </trkpt>
      <trkpt lat="43.20796" lon="5.97902">
        <ele>346.21</ele>
        <time>2022-09-17T07:24:06Z</time>
      </trkpt>
      <trkpt lat="43.20787" lon="5.97907">
        <ele>345.73</ele>
        <time>2022-09-17T07:24:07Z</time>
      </trkpt>
      <trkpt lat="43.2069" lon="5.97987">
        <ele>337.08</ele>
        <time>2022-09-17T07:24:18Z</time>
      </trkpt>
      <trkpt lat="43.20576" lon="5.98063">
        <ele>332.75</ele>
        <time>2022-09-17T07:24:32Z</time>
      </trkpt>
      <trkpt lat="43.20562" lon="5.98074">
        <ele>332.27</ele>
        <time>2022-09-17T07:24:34Z</time>
      </trkpt>
      <trkpt lat="43.20558" lon="5.98081">
        <ele>332.27</ele>
        <time>2022-09-17T07:24:35Z</time>
      </trkpt>
      <trkpt lat="43.20555" lon="5.98091">
        <ele>331.79</ele>
        <time>2022-09-17T07:24:36Z</time>
      </trkpt>
      <trkpt lat="43.20555" lon="5.981">
        <ele>331.79</ele>
        <time>2022-09-17T07:24:37Z</time>
      </trkpt>
      <trkpt lat="43.20557" lon="5.9811">
        <ele>331.79</ele>
        <time>2022-09-17T07:24:38Z</time>
      </trkpt>
      <trkpt lat="43.20561" lon="5.9812">
        <ele>331.31</ele>
        <time>2022-09-17T07:24:39Z</time>
      </trkpt>
      <trkpt lat="43.20574" lon="5.98162">
        <ele>330.35</ele>
        <time>2022-09-17T07:24:43Z</time>
      </trkpt>
      <trkpt lat="43.20575" lon="5.98172">
        <ele>330.35</ele>
        <time>2022-09-17T07:24:44Z</time>
      </trkpt>
      <trkpt lat="43.20575" lon="5.98181">
        <ele>329.39</ele>
        <time>2022-09-17T07:24:45Z</time>
      </trkpt>
      <trkpt lat="43.20572" lon="5.9819">
        <ele>329.39</ele>
        <time>2022-09-17T07:24:46Z</time>
      </trkpt>
      <trkpt lat="43.20567" lon="5.98197">
        <ele>328.91</ele>
        <time>2022-09-17T07:24:47Z</time>
      </trkpt>
      <trkpt lat="43.2056" lon="5.98204">
        <ele>328.43</ele>
        <time>2022-09-17T07:24:48Z</time>
      </trkpt>
      <trkpt lat="43.20553" lon="5.9821">
        <ele>328.43</ele>
        <time>2022-09-17T07:24:49Z</time>
      </trkpt>
      <trkpt lat="43.20546" lon="5.98216">
        <ele>327.95</ele>
        <time>2022-09-17T07:24:50Z</time>
      </trkpt>
      <trkpt lat="43.20458" lon="5.98279">
        <ele>322.18</ele>
        <time>2022-09-17T07:25:01Z</time>
      </trkpt>
      <trkpt lat="43.20372" lon="5.98351">
        <ele>315.93</ele>
        <time>2022-09-17T07:25:12Z</time>
      </trkpt>
      <trkpt lat="43.20367" lon="5.98358">
        <ele>314.97</ele>
        <time>2022-09-17T07:25:13Z</time>
      </trkpt>
      <trkpt lat="43.20364" lon="5.98367">
        <ele>314.97</ele>
        <time>2022-09-17T07:25:14Z</time>
      </trkpt>
      <trkpt lat="43.20363" lon="5.98377">
        <ele>314.49</ele>
        <time>2022-09-17T07:25:15Z</time>
      </trkpt>
      <trkpt lat="43.20365" lon="5.98387">
        <ele>314.01</ele>
        <time>2022-09-17T07:25:16Z</time>
      </trkpt>
      <trkpt lat="43.20368" lon="5.98397">
        <ele>313.53</ele>
        <time>2022-09-17T07:25:17Z</time>
      </trkpt>
      <trkpt lat="43.20372" lon="5.98406">
        <ele>313.05</ele>
        <time>2022-09-17T07:25:18Z</time>
      </trkpt>
      <trkpt lat="43.20403" lon="5.98496">
        <ele>308.24</ele>
        <time>2022-09-17T07:25:27Z</time>
      </trkpt>
      <trkpt lat="43.20421" lon="5.98553">
        <ele>305.84</ele>
        <time>2022-09-17T07:25:33Z</time>
      </trkpt>
      <trkpt lat="43.20421" lon="5.98563">
        <ele>305.36</ele>
        <time>2022-09-17T07:25:34Z</time>
      </trkpt>
      <trkpt lat="43.20419" lon="5.98572">
        <ele>305.36</ele>
        <time>2022-09-17T07:25:35Z</time>
      </trkpt>
      <trkpt lat="43.20416" lon="5.9858">
        <ele>304.88</ele>
        <time>2022-09-17T07:25:36Z</time>
      </trkpt>
      <trkpt lat="43.20412" lon="5.98587">
        <ele>304.39</ele>
        <time>2022-09-17T07:25:37Z</time>
      </trkpt>
      <trkpt lat="43.20408" lon="5.98595">
        <ele>304.39</ele>
        <time>2022-09-17T07:25:38Z</time>
      </trkpt>
      <trkpt lat="43.20385" lon="5.98634">
        <ele>305.84</ele>
        <time>2022-09-17T07:25:43Z</time>
      </trkpt>
      <trkpt lat="43.20381" lon="5.98642">
        <ele>306.32</ele>
        <time>2022-09-17T07:25:44Z</time>
      </trkpt>
      <trkpt lat="43.20371" lon="5.98656">
        <ele>306.32</ele>
        <time>2022-09-17T07:25:46Z</time>
      </trkpt>
      <trkpt lat="43.2034" lon="5.98703">
        <ele>307.28</ele>
        <time>2022-09-17T07:25:53Z</time>
      </trkpt>
      <trkpt lat="43.20302" lon="5.9877">
        <ele>307.28</ele>
        <time>2022-09-17T07:26:03Z</time>
      </trkpt>
      <trkpt lat="43.20281" lon="5.98822">
        <ele>305.84</ele>
        <time>2022-09-17T07:26:10Z</time>
      </trkpt>
      <trkpt lat="43.20278" lon="5.98829">
        <ele>305.36</ele>
        <time>2022-09-17T07:26:11Z</time>
      </trkpt>
      <trkpt lat="43.20274" lon="5.98843">
        <ele>304.88</ele>
        <time>2022-09-17T07:26:13Z</time>
      </trkpt>
      <trkpt lat="43.20274" lon="5.98852">
        <ele>304.39</ele>
        <time>2022-09-17T07:26:14Z</time>
      </trkpt>
      <trkpt lat="43.20275" lon="5.98861">
        <ele>304.39</ele>
        <time>2022-09-17T07:26:15Z</time>
      </trkpt>
      <trkpt lat="43.20279" lon="5.98868">
        <ele>303.91</ele>
        <time>2022-09-17T07:26:16Z</time>
      </trkpt>
      <trkpt lat="43.20285" lon="5.98876">
        <ele>304.39</ele>
        <time>2022-09-17T07:26:17Z</time>
      </trkpt>
      <trkpt lat="43.20292" lon="5.98879">
        <ele>303.91</ele>
        <time>2022-09-17T07:26:18Z</time>
      </trkpt>
      <trkpt lat="43.203" lon="5.9888">
        <ele>303.43</ele>
        <time>2022-09-17T07:26:19Z</time>
      </trkpt>
      <trkpt lat="43.20309" lon="5.9888">
        <ele>302.95</ele>
        <time>2022-09-17T07:26:20Z</time>
      </trkpt>
      <trkpt lat="43.20406" lon="5.9887">
        <ele>296.7</ele>
        <time>2022-09-17T07:26:30Z</time>
      </trkpt>
      <trkpt lat="43.20515" lon="5.98875">
        <ele>289.01</ele>
        <time>2022-09-17T07:26:40Z</time>
      </trkpt>
      <trkpt lat="43.20686" lon="5.98943">
        <ele>281.32</ele>
        <time>2022-09-17T07:26:55Z</time>
      </trkpt>
      <trkpt lat="43.20783" lon="5.98985">
        <ele>276.52</ele>
        <time>2022-09-17T07:27:04Z</time>
      </trkpt>
      <trkpt lat="43.20791" lon="5.98994">
        <ele>275.56</ele>
        <time>2022-09-17T07:27:05Z</time>
      </trkpt>
      <trkpt lat="43.20797" lon="5.99005">
        <ele>275.07</ele>
        <time>2022-09-17T07:27:06Z</time>
      </trkpt>
      <trkpt lat="43.20801" lon="5.99019">
        <ele>274.11</ele>
        <time>2022-09-17T07:27:07Z</time>
      </trkpt>
      <trkpt lat="43.20802" lon="5.99033">
        <ele>273.63</ele>
        <time>2022-09-17T07:27:08Z</time>
      </trkpt>
      <trkpt lat="43.20802" lon="5.99048">
        <ele>272.67</ele>
        <time>2022-09-17T07:27:09Z</time>
      </trkpt>
      <trkpt lat="43.20785" lon="5.99226">
        <ele>262.1</ele>
        <time>2022-09-17T07:27:21Z</time>
      </trkpt>
      <trkpt lat="43.20756" lon="5.99309">
        <ele>257.29</ele>
        <time>2022-09-17T07:27:27Z</time>
      </trkpt>
      <trkpt lat="43.20755" lon="5.99322">
        <ele>256.81</ele>
        <time>2022-09-17T07:27:28Z</time>
      </trkpt>
      <trkpt lat="43.20757" lon="5.99334">
        <ele>255.85</ele>
        <time>2022-09-17T07:27:29Z</time>
      </trkpt>
      <trkpt lat="43.20761" lon="5.99345">
        <ele>254.89</ele>
        <time>2022-09-17T07:27:30Z</time>
      </trkpt>
      <trkpt lat="43.20764" lon="5.99355">
        <ele>253.93</ele>
        <time>2022-09-17T07:27:31Z</time>
      </trkpt>
      <trkpt lat="43.20765" lon="5.99365">
        <ele>252.96</ele>
        <time>2022-09-17T07:27:32Z</time>
      </trkpt>
      <trkpt lat="43.20762" lon="5.99374">
        <ele>252</ele>
        <time>2022-09-17T07:27:33Z</time>
      </trkpt>
      <trkpt lat="43.20755" lon="5.9938">
        <ele>251.04</ele>
        <time>2022-09-17T07:27:34Z</time>
      </trkpt>
      <trkpt lat="43.20748" lon="5.99385">
        <ele>250.08</ele>
        <time>2022-09-17T07:27:35Z</time>
      </trkpt>
      <trkpt lat="43.2074" lon="5.9939">
        <ele>249.12</ele>
        <time>2022-09-17T07:27:36Z</time>
      </trkpt>
      <trkpt lat="43.20655" lon="5.99457">
        <ele>240.95</ele>
        <time>2022-09-17T07:27:46Z</time>
      </trkpt>
      <trkpt lat="43.20529" lon="5.99609">
        <ele>232.78</ele>
        <time>2022-09-17T07:28:01Z</time>
      </trkpt>
      <trkpt lat="43.20455" lon="5.99681">
        <ele>227.01</ele>
        <time>2022-09-17T07:28:09Z</time>
      </trkpt>
      <trkpt lat="43.20445" lon="5.99692">
        <ele>226.05</ele>
        <time>2022-09-17T07:28:10Z</time>
      </trkpt>
      <trkpt lat="43.20437" lon="5.99705">
        <ele>225.57</ele>
        <time>2022-09-17T07:28:11Z</time>
      </trkpt>
      <trkpt lat="43.20421" lon="5.99731">
        <ele>222.2</ele>
        <time>2022-09-17T07:28:13Z</time>
      </trkpt>
      <trkpt lat="43.20415" lon="5.99746">
        <ele>221.72</ele>
        <time>2022-09-17T07:28:14Z</time>
      </trkpt>
      <trkpt lat="43.2041" lon="5.99761">
        <ele>220.76</ele>
        <time>2022-09-17T07:28:15Z</time>
      </trkpt>
      <trkpt lat="43.20397" lon="5.99814">
        <ele>218.36</ele>
        <time>2022-09-17T07:28:19Z</time>
      </trkpt>
      <trkpt lat="43.20393" lon="5.99823">
        <ele>217.88</ele>
        <time>2022-09-17T07:28:20Z</time>
      </trkpt>
      <trkpt lat="43.20388" lon="5.9983">
        <ele>217.4</ele>
        <time>2022-09-17T07:28:21Z</time>
      </trkpt>
      <trkpt lat="43.20383" lon="5.99833">
        <ele>217.4</ele>
        <time>2022-09-17T07:28:22Z</time>
      </trkpt>
      <trkpt lat="43.20375" lon="5.99828">
        <ele>216.43</ele>
        <time>2022-09-17T07:28:24Z</time>
      </trkpt>
      <trkpt lat="43.20372" lon="5.99821">
        <ele>215.47</ele>
        <time>2022-09-17T07:28:25Z</time>
      </trkpt>
      <trkpt lat="43.20372" lon="5.99813">
        <ele>215.47</ele>
        <time>2022-09-17T07:28:26Z</time>
      </trkpt>
      <trkpt lat="43.20373" lon="5.99805">
        <ele>215.47</ele>
        <time>2022-09-17T07:28:27Z</time>
      </trkpt>
      <trkpt lat="43.20375" lon="5.99797">
        <ele>214.99</ele>
        <time>2022-09-17T07:28:28Z</time>
      </trkpt>
      <trkpt lat="43.20377" lon="5.99788">
        <ele>214.99</ele>
        <time>2022-09-17T07:28:29Z</time>
      </trkpt>
      <trkpt lat="43.20379" lon="5.99779">
        <ele>214.51</ele>
        <time>2022-09-17T07:28:30Z</time>
      </trkpt>
      <trkpt lat="43.20382" lon="5.99771">
        <ele>214.51</ele>
        <time>2022-09-17T07:28:31Z</time>
      </trkpt>
      <trkpt lat="43.20385" lon="5.99762">
        <ele>214.03</ele>
        <time>2022-09-17T07:28:32Z</time>
      </trkpt>
      <trkpt lat="43.20399" lon="5.9965">
        <ele>209.7</ele>
        <time>2022-09-17T07:28:43Z</time>
      </trkpt>
      <trkpt lat="43.20401" lon="5.99604">
        <ele>207.78</ele>
        <time>2022-09-17T07:28:47Z</time>
      </trkpt>
      <trkpt lat="43.20407" lon="5.99536">
        <ele>206.34</ele>
        <time>2022-09-17T07:28:53Z</time>
      </trkpt>
      <trkpt lat="43.20419" lon="5.99496">
        <ele>205.38</ele>
        <time>2022-09-17T07:28:57Z</time>
      </trkpt>
      <trkpt lat="43.20464" lon="5.99406">
        <ele>202.49</ele>
        <time>2022-09-17T07:29:07Z</time>
      </trkpt>
      <trkpt lat="43.2047" lon="5.99401">
        <ele>202.01</ele>
        <time>2022-09-17T07:29:08Z</time>
      </trkpt>
      <trkpt lat="43.20476" lon="5.99397">
        <ele>202.01</ele>
        <time>2022-09-17T07:29:09Z</time>
      </trkpt>
      <trkpt lat="43.20482" lon="5.99392">
        <ele>201.53</ele>
        <time>2022-09-17T07:29:10Z</time>
      </trkpt>
      <trkpt lat="43.20487" lon="5.99387">
        <ele>201.53</ele>
        <time>2022-09-17T07:29:11Z</time>
      </trkpt>
      <trkpt lat="43.20489" lon="5.9938">
        <ele>201.05</ele>
        <time>2022-09-17T07:29:12Z</time>
      </trkpt>
      <trkpt lat="43.20487" lon="5.99374">
        <ele>200.57</ele>
        <time>2022-09-17T07:29:13Z</time>
      </trkpt>
      <trkpt lat="43.20484" lon="5.99369">
        <ele>200.09</ele>
        <time>2022-09-17T07:29:14Z</time>
      </trkpt>
      <trkpt lat="43.20482" lon="5.99366">
        <ele>199.61</ele>
        <time>2022-09-17T07:29:15Z</time>
      </trkpt>
      <trkpt lat="43.2048" lon="5.99362">
        <ele>199.13</ele>
        <time>2022-09-17T07:29:16Z</time>
      </trkpt>
      <trkpt lat="43.2048" lon="5.99359">
        <ele>198.65</ele>
        <time>2022-09-17T07:29:17Z</time>
      </trkpt>
      <trkpt lat="43.2048" lon="5.99355">
        <ele>198.65</ele>
        <time>2022-09-17T07:29:18Z</time>
      </trkpt>
    </trkseg>
  </trk>
</gpx>